createdAt,value
2018-09-29T00:01:22.580Z,9.60
2018-09-29T00:03:51.371Z,5.10
2018-09-29T00:06:20.220Z,5.37
2018-09-29T00:08:49.038Z,7.57
2018-09-29T00:11:17.944Z,8.60
2018-09-29T00:13:46.738Z,8.50
2018-09-29T00:16:15.595Z,6.77
2018-09-29T00:18:44.381Z,6.33
2018-09-29T00:21:13.232Z,4.93
2018-09-29T00:23:42.079Z,7.00
2018-09-29T00:26:10.920Z,7.70
2018-09-29T00:28:39.716Z,7.70
2018-09-29T00:31:08.564Z,6.90
2018-09-29T00:33:38.432Z,6.70
2018-09-29T00:36:07.389Z,6.13
2018-09-29T00:38:36.168Z,5.90
2018-09-29T00:41:04.975Z,5.03
2018-09-29T00:43:34.073Z,4.50
2018-09-29T00:46:02.992Z,5.67
2018-09-29T00:48:33.115Z,6.70
2018-09-29T00:51:01.924Z,13.50
2018-09-29T00:53:30.763Z,9.13
2018-09-29T00:55:59.624Z,5.57
2018-09-29T00:58:28.468Z,7.63
2018-09-29T01:00:57.780Z,9.23
2018-09-29T01:03:26.624Z,5.07
2018-09-29T01:05:55.451Z,6.20
2018-09-29T01:08:24.300Z,8.70
2018-09-29T01:10:53.108Z,10.50
2018-09-29T01:13:22.011Z,4.90
2018-09-29T01:15:50.801Z,10.10
2018-09-29T01:18:19.959Z,7.10
2018-09-29T01:20:48.814Z,7.43
2018-09-29T01:23:17.668Z,11.90
2018-09-29T01:25:46.523Z,6.97
2018-09-29T01:28:15.411Z,4.97
2018-09-29T01:30:44.200Z,7.23
2018-09-29T01:33:12.988Z,6.20
2018-09-29T01:35:41.809Z,7.97
2018-09-29T01:38:10.659Z,8.63
2018-09-29T01:40:39.487Z,9.10
2018-09-29T01:43:08.280Z,6.53
2018-09-29T01:45:37.371Z,7.97
2018-09-29T01:48:06.189Z,9.73
2018-09-29T01:50:35.144Z,9.13
2018-09-29T01:53:04.015Z,9.67
2018-09-29T01:55:32.900Z,9.93
2018-09-29T01:58:01.687Z,9.10
2018-09-29T02:00:30.546Z,6.00
2018-09-29T02:03:03.893Z,10.47
2018-09-29T02:05:32.783Z,9.17
2018-09-29T02:08:01.640Z,7.13
2018-09-29T02:10:30.882Z,10.20
2018-09-29T02:13:00.301Z,9.97
2018-09-29T02:15:29.221Z,7.43
2018-09-29T02:17:58.024Z,10.63
2018-09-29T02:20:26.905Z,6.80
2018-09-29T02:22:56.038Z,8.73
2018-09-29T02:25:25.391Z,6.00
2018-09-29T02:27:54.183Z,4.53
2018-09-29T02:30:23.003Z,5.83
2018-09-29T02:32:51.846Z,10.53
2018-09-29T02:35:20.937Z,11.33
2018-09-29T02:37:49.869Z,9.50
2018-09-29T02:40:18.689Z,6.77
2018-09-29T02:42:47.499Z,7.93
2018-09-29T02:45:16.295Z,9.63
2018-09-29T02:47:45.124Z,9.73
2018-09-29T02:50:13.967Z,7.70
2018-09-29T02:52:42.792Z,7.13
2018-09-29T02:55:11.627Z,6.40
2018-09-29T02:57:40.489Z,10.10
2018-09-29T03:00:09.276Z,7.20
2018-09-29T03:02:38.164Z,8.37
2018-09-29T03:05:07.016Z,9.63
2018-09-29T03:07:37.880Z,9.73
2018-09-29T03:10:06.748Z,6.53
2018-09-29T03:12:35.559Z,7.77
2018-09-29T03:15:04.601Z,10.47
2018-09-29T03:17:33.451Z,6.97
2018-09-29T03:20:02.240Z,11.60
2018-09-29T03:22:31.698Z,11.13
2018-09-29T03:25:00.493Z,7.50
2018-09-29T03:27:29.438Z,7.00
2018-09-29T03:29:58.264Z,8.03
2018-09-29T03:32:27.077Z,13.80
2018-09-29T03:34:55.929Z,12.40
2018-09-29T03:37:24.727Z,9.80
2018-09-29T03:39:53.904Z,10.43
2018-09-29T03:42:22.691Z,9.47
2018-09-29T03:44:52.435Z,7.50
2018-09-29T03:47:21.199Z,7.30
2018-09-29T03:49:50.065Z,9.10
2018-09-29T03:52:18.988Z,8.10
2018-09-29T03:54:47.989Z,5.23
2018-09-29T03:57:16.796Z,12.70
2018-09-29T03:59:45.631Z,6.73
2018-09-29T04:02:14.453Z,7.13
2018-09-29T04:04:43.353Z,11.30
2018-09-29T04:07:12.146Z,5.87
2018-09-29T04:09:40.972Z,11.67
2018-09-29T04:12:09.778Z,11.57
2018-09-29T04:14:38.624Z,6.60
2018-09-29T04:17:07.604Z,4.10
2018-09-29T04:19:36.461Z,10.10
2018-09-29T04:22:05.351Z,8.93
2018-09-29T04:24:34.288Z,8.93
2018-09-29T04:27:03.110Z,8.83
2018-09-29T04:29:31.996Z,11.73
2018-09-29T04:32:00.834Z,8.73
2018-09-29T04:34:29.627Z,7.17
2018-09-29T04:36:58.453Z,7.50
2018-09-29T04:39:27.288Z,4.97
2018-09-29T04:41:56.164Z,7.63
2018-09-29T04:44:24.947Z,8.10
2018-09-29T04:46:53.795Z,7.10
2018-09-29T04:49:22.551Z,8.13
2018-09-29T04:51:51.371Z,5.13
2018-09-29T04:54:20.192Z,6.87
2018-09-29T04:56:49.084Z,7.37
2018-09-29T04:59:17.875Z,5.70
2018-09-29T05:01:46.699Z,6.73
2018-09-29T05:04:16.026Z,11.60
2018-09-29T05:06:44.900Z,4.90
2018-09-29T05:09:13.716Z,6.50
2018-09-29T05:11:42.543Z,4.47
2018-09-29T05:14:11.356Z,11.07
2018-09-29T05:16:40.229Z,3.77
2018-09-29T05:19:09.437Z,6.60
2018-09-29T05:21:38.303Z,7.20
2018-09-29T05:24:07.271Z,8.63
2018-09-29T05:26:36.324Z,4.90
2018-09-29T05:29:05.167Z,6.13
2018-09-29T05:31:34.061Z,5.67
2018-09-29T05:34:02.895Z,9.03
2018-09-29T05:36:31.715Z,7.17
2018-09-29T05:39:00.583Z,5.90
2018-09-29T05:41:29.396Z,5.33
2018-09-29T05:43:58.425Z,9.10
2018-09-29T05:46:27.201Z,6.60
2018-09-29T05:48:56.037Z,6.63
2018-09-29T05:51:25.129Z,5.13
2018-09-29T05:53:53.950Z,9.93
2018-09-29T05:56:22.940Z,4.33
2018-09-29T05:58:51.839Z,7.23
2018-09-29T06:01:20.620Z,8.47
2018-09-29T06:03:49.445Z,5.97
2018-09-29T06:06:18.241Z,5.73
2018-09-29T06:08:47.128Z,8.07
2018-09-29T06:11:16.334Z,8.00
2018-09-29T06:13:45.165Z,7.33
2018-09-29T06:16:13.977Z,6.77
2018-09-29T06:18:42.841Z,4.80
2018-09-29T06:21:11.836Z,10.67
2018-09-29T06:23:40.700Z,8.77
2018-09-29T06:26:09.800Z,10.43
2018-09-29T06:28:38.571Z,6.40
2018-09-29T06:31:07.459Z,7.23
2018-09-29T06:33:36.364Z,8.93
2018-09-29T06:36:05.267Z,8.53
2018-09-29T06:38:34.413Z,9.00
2018-09-29T06:41:03.531Z,8.13
2018-09-29T06:43:32.545Z,8.77
2018-09-29T06:46:01.456Z,6.40
2018-09-29T06:48:30.274Z,4.47
2018-09-29T06:50:59.096Z,10.10
2018-09-29T06:53:27.891Z,9.73
2018-09-29T06:55:56.790Z,8.53
2018-09-29T06:58:25.628Z,6.30
2018-09-29T07:00:54.476Z,8.07
2018-09-29T07:03:23.286Z,9.33
2018-09-29T07:05:52.124Z,9.57
2018-09-29T07:08:20.959Z,8.03
2018-09-29T07:10:49.879Z,9.37
2018-09-29T07:13:18.695Z,6.23
2018-09-29T07:15:47.619Z,4.17
2018-09-29T07:18:16.403Z,5.50
2018-09-29T07:20:45.178Z,7.57
2018-09-29T07:23:14.116Z,5.87
2018-09-29T07:25:43.152Z,7.07
2018-09-29T07:28:12.053Z,4.27
2018-09-29T07:30:40.829Z,4.77
2018-09-29T07:33:09.653Z,7.60
2018-09-29T07:35:38.537Z,8.43
2018-09-29T07:38:07.396Z,7.97
2018-09-29T07:40:36.259Z,7.70
2018-09-29T07:43:05.110Z,10.70
2018-09-29T07:45:39.779Z,3.70
2018-09-29T07:48:08.660Z,10.43
2018-09-29T07:50:37.471Z,4.17
2018-09-29T07:53:06.350Z,4.53
2018-09-29T07:55:35.213Z,5.27
2018-09-29T07:58:04.058Z,7.53
2018-09-29T08:00:33.273Z,5.63
2018-09-29T08:03:02.190Z,7.53
2018-09-29T08:05:30.984Z,7.80
2018-09-29T08:07:59.829Z,8.97
2018-09-29T08:10:28.628Z,7.30
2018-09-29T08:12:57.828Z,5.93
2018-09-29T08:15:26.605Z,6.13
2018-09-29T08:17:55.532Z,6.40
2018-09-29T08:20:24.324Z,8.10
2018-09-29T08:22:53.132Z,5.17
2018-09-29T08:25:22.045Z,7.83
2018-09-29T08:27:50.837Z,7.47
2018-09-29T08:30:19.921Z,5.63
2018-09-29T08:32:48.835Z,7.03
2018-09-29T08:35:17.693Z,5.97
2018-09-29T08:37:46.562Z,11.37
2018-09-29T08:40:15.791Z,5.40
2018-09-29T08:42:44.848Z,5.57
2018-09-29T08:45:13.775Z,9.00
2018-09-29T08:47:42.594Z,6.60
2018-09-29T08:50:11.470Z,5.43
2018-09-29T08:52:40.563Z,6.57
2018-09-29T08:55:09.423Z,3.83
2018-09-29T08:57:38.235Z,3.53
2018-09-29T09:00:07.149Z,4.53
2018-09-29T09:02:36.060Z,9.73
2018-09-29T09:05:04.976Z,6.07
2018-09-29T09:07:33.825Z,5.90
2018-09-29T09:10:02.697Z,7.60
2018-09-29T09:12:31.519Z,8.47
2018-09-29T09:15:00.448Z,6.50
2018-09-29T09:17:29.271Z,7.77
2018-09-29T09:19:58.196Z,7.93
2018-09-29T09:22:26.986Z,7.23
2018-09-29T09:24:55.773Z,3.57
2018-09-29T09:27:24.669Z,7.17
2018-09-29T09:29:53.579Z,8.03
2018-09-29T09:32:22.511Z,5.10
2018-09-29T09:34:51.333Z,5.03
2018-09-29T09:37:20.192Z,9.40
2018-09-29T09:39:49.056Z,5.20
2018-09-29T09:42:17.904Z,6.20
2018-09-29T09:44:46.688Z,3.70
2018-09-29T09:47:15.551Z,3.03
2018-09-29T09:49:44.339Z,8.63
2018-09-29T09:52:13.244Z,5.87
2018-09-29T09:54:42.029Z,5.90
2018-09-29T09:57:10.895Z,5.67
2018-09-29T09:59:39.660Z,8.17
2018-09-29T10:02:14.019Z,4.57
2018-09-29T10:04:42.895Z,6.17
2018-09-29T10:07:11.730Z,3.87
2018-09-29T10:09:40.516Z,5.77
2018-09-29T10:12:09.368Z,4.97
2018-09-29T10:14:38.143Z,3.90
2018-09-29T10:17:07.038Z,2.97
2018-09-29T10:19:35.832Z,5.23
2018-09-29T10:22:04.649Z,2.97
2018-09-29T10:24:33.491Z,4.93
2018-09-29T10:27:02.310Z,3.03
2018-09-29T10:29:31.568Z,3.03
2018-09-29T10:32:00.351Z,2.33
2018-09-29T10:34:29.200Z,0.67
2018-09-29T10:36:58.032Z,3.80
2018-09-29T10:39:26.878Z,4.00
2018-09-29T10:41:57.084Z,2.17
2018-09-29T10:44:25.949Z,4.30
2018-09-29T10:46:54.769Z,4.83
2018-09-29T10:49:23.724Z,5.17
2018-09-29T10:51:52.516Z,3.00
2018-09-29T10:54:21.397Z,1.60
2018-09-29T10:56:50.249Z,4.33
2018-09-29T10:59:19.110Z,5.30
2018-09-29T11:01:47.947Z,5.50
2018-09-29T11:04:16.791Z,4.17
2018-09-29T11:06:45.628Z,4.43
2018-09-29T11:09:15.721Z,3.83
2018-09-29T11:11:44.492Z,4.03
2018-09-29T11:14:13.363Z,2.23
2018-09-29T11:16:42.169Z,3.17
2018-09-29T11:19:11.012Z,2.83
2018-09-29T11:21:39.840Z,7.97
2018-09-29T11:24:08.651Z,5.33
2018-09-29T11:26:37.480Z,5.93
2018-09-29T11:29:06.272Z,3.33
2018-09-29T11:31:35.151Z,5.10
2018-09-29T11:34:03.974Z,1.97
2018-09-29T11:36:32.795Z,5.50
2018-09-29T11:39:01.590Z,3.53
2018-09-29T11:41:30.408Z,4.30
2018-09-29T11:43:59.275Z,2.90
2018-09-29T11:46:28.094Z,5.93
2018-09-29T11:48:56.868Z,4.13
2018-09-29T11:51:25.819Z,2.10
2018-09-29T11:53:54.667Z,2.80
2018-09-29T11:56:23.612Z,3.83
2018-09-29T11:58:52.483Z,2.77
2018-09-29T12:01:21.318Z,2.97
2018-09-29T12:03:50.444Z,1.30
2018-09-29T12:06:19.342Z,4.80
2018-09-29T12:08:48.379Z,6.73
2018-09-29T12:11:17.440Z,3.80
2018-09-29T12:13:46.263Z,1.90
2018-09-29T12:16:15.104Z,2.03
2018-09-29T12:18:43.887Z,2.73
2018-09-29T12:21:12.875Z,2.37
2018-09-29T12:23:41.648Z,2.27
2018-09-29T12:26:10.460Z,3.80
2018-09-29T12:28:39.312Z,4.13
2018-09-29T12:31:08.204Z,0.97
2018-09-29T12:33:37.106Z,2.47
2018-09-29T12:36:05.925Z,3.03
2018-09-29T12:38:34.875Z,4.80
2018-09-29T12:41:03.684Z,1.40
2018-09-29T12:43:32.569Z,1.47
2018-09-29T12:46:01.432Z,3.63
2018-09-29T12:48:30.280Z,3.40
2018-09-29T12:50:59.101Z,1.97
2018-09-29T12:53:27.938Z,2.07
2018-09-29T12:55:56.775Z,1.53
2018-09-29T12:58:25.710Z,1.13
2018-09-29T13:00:54.528Z,2.23
2018-09-29T13:03:23.367Z,1.70
2018-09-29T13:05:52.215Z,2.93
2018-09-29T13:08:21.036Z,3.23
2018-09-29T13:10:49.981Z,3.07
2018-09-29T13:13:19.104Z,3.20
2018-09-29T13:15:47.892Z,3.27
2018-09-29T13:18:16.696Z,2.93
2018-09-29T13:20:45.520Z,4.00
2018-09-29T13:23:14.356Z,2.20
2018-09-29T13:25:43.179Z,3.93
2018-09-29T13:28:11.984Z,2.60
2018-09-29T13:30:40.833Z,5.93
2018-09-29T13:33:10.208Z,3.27
2018-09-29T13:35:39.110Z,4.43
2018-09-29T13:38:07.872Z,6.37
2018-09-29T13:40:36.782Z,2.73
2018-09-29T13:43:05.640Z,3.87
2018-09-29T13:45:34.466Z,1.83
2018-09-29T13:48:04.316Z,1.93
2018-09-29T13:50:33.184Z,1.97
2018-09-29T13:53:02.691Z,4.37
2018-09-29T13:55:31.796Z,3.03
2018-09-29T13:58:00.690Z,3.27
2018-09-29T14:00:29.589Z,7.53
2018-09-29T14:02:58.684Z,4.20
2018-09-29T14:05:27.559Z,3.30
2018-09-29T14:07:56.632Z,7.27
2018-09-29T14:10:26.396Z,3.73
2018-09-29T14:12:55.305Z,4.53
2018-09-29T14:15:24.197Z,3.10
2018-09-29T14:17:53.062Z,2.80
2018-09-29T14:20:21.881Z,2.67
2018-09-29T14:22:50.713Z,1.77
2018-09-29T14:25:19.708Z,3.13
2018-09-29T14:27:48.566Z,5.50
2018-09-29T14:30:17.404Z,2.00
2018-09-29T14:32:46.252Z,3.93
2018-09-29T14:35:15.068Z,4.43
2018-09-29T14:37:44.016Z,5.07
2018-09-29T14:40:12.831Z,2.93
2018-09-29T14:42:41.945Z,3.00
2018-09-29T14:45:10.825Z,4.43
2018-09-29T14:47:39.662Z,3.97
2018-09-29T14:50:08.590Z,3.60
2018-09-29T14:52:37.431Z,5.93
2018-09-29T14:55:06.308Z,4.47
2018-09-29T14:57:35.193Z,1.57
2018-09-29T15:00:04.281Z,2.50
2018-09-29T15:02:33.197Z,4.03
2018-09-29T15:05:02.006Z,1.63
2018-09-29T15:07:30.864Z,3.97
2018-09-29T15:09:59.731Z,4.23
2018-09-29T15:12:28.883Z,4.47
2018-09-29T15:14:58.737Z,1.53
2018-09-29T15:17:28.064Z,1.33
2018-09-29T15:19:57.419Z,2.17
2018-09-29T15:22:26.382Z,3.23
2018-09-29T15:24:55.196Z,2.07
2018-09-29T15:27:24.126Z,0.87
2018-09-29T15:29:53.009Z,4.23
2018-09-29T15:32:21.851Z,4.20
2018-09-29T15:34:51.193Z,2.97
2018-09-29T15:37:22.124Z,5.00
2018-09-29T15:39:51.325Z,4.50
2018-09-29T15:42:20.145Z,3.77
2018-09-29T15:44:49.047Z,2.67
2018-09-29T15:47:18.121Z,4.77
2018-09-29T15:49:46.942Z,4.37
2018-09-29T15:52:15.904Z,6.33
2018-09-29T15:54:44.751Z,4.78
2018-09-29T15:57:13.600Z,4.20
2018-09-29T15:59:42.441Z,5.77
2018-09-29T16:02:11.237Z,4.17
2018-09-29T16:04:40.149Z,5.60
2018-09-29T16:07:08.933Z,3.60
2018-09-29T16:09:37.773Z,3.33
2018-09-29T16:12:06.596Z,3.47
2018-09-29T16:14:35.420Z,3.73
2018-09-29T16:17:04.332Z,3.43
2018-09-29T16:19:33.151Z,5.60
2018-09-29T16:22:01.988Z,1.57
2018-09-29T16:24:30.764Z,2.00
2018-09-29T16:26:59.622Z,4.33
2018-09-29T16:29:28.747Z,2.93
2018-09-29T16:31:57.926Z,3.13
2018-09-29T16:34:26.668Z,4.00
2018-09-29T16:36:55.487Z,4.47
2018-09-29T16:39:24.585Z,2.20
2018-09-29T16:41:53.500Z,5.57
2018-09-29T16:44:22.286Z,4.07
2018-09-29T16:46:51.136Z,5.33
2018-09-29T16:49:19.988Z,11.13
2018-09-29T16:51:48.818Z,6.60
2018-09-29T16:54:17.788Z,5.03
2018-09-29T16:56:46.641Z,3.00
2018-09-29T16:59:15.443Z,5.90
2018-09-29T17:01:44.275Z,6.67
2018-09-29T17:04:13.127Z,6.93
2018-09-29T17:06:42.048Z,9.23
2018-09-29T17:09:11.972Z,12.37
2018-09-29T17:11:41.108Z,7.90
2018-09-29T17:14:09.923Z,8.00
2018-09-29T17:16:38.719Z,7.70
2018-09-29T17:19:07.732Z,3.73
2018-09-29T17:21:36.525Z,5.00
2018-09-29T17:24:05.427Z,12.53
2018-09-29T17:26:34.237Z,7.17
2018-09-29T17:29:03.117Z,6.63
2018-09-29T17:31:31.958Z,4.60
2018-09-29T17:34:00.778Z,5.97
2018-09-29T17:36:29.581Z,8.50
2018-09-29T17:38:58.453Z,6.47
2018-09-29T17:41:27.251Z,4.40
2018-09-29T17:43:56.248Z,3.97
2018-09-29T17:46:25.072Z,4.83
2018-09-29T17:48:53.895Z,3.30
2018-09-29T17:51:22.750Z,4.73
2018-09-29T17:53:51.540Z,5.67
2018-09-29T17:56:20.462Z,4.87
2018-09-29T17:58:49.373Z,5.77
2018-09-29T18:01:18.169Z,5.63
2018-09-29T18:03:47.027Z,6.07
2018-09-29T18:06:15.848Z,3.77
2018-09-29T18:08:44.781Z,5.60
2018-09-29T18:11:13.597Z,5.70
2018-09-29T18:13:42.431Z,4.37
2018-09-29T18:16:11.257Z,7.73
2018-09-29T18:18:40.979Z,6.23
2018-09-29T18:21:09.907Z,6.23
2018-09-29T18:23:38.697Z,5.57
2018-09-29T18:26:07.623Z,5.00
2018-09-29T18:28:36.418Z,9.17
2018-09-29T18:31:05.252Z,7.20
2018-09-29T18:33:34.132Z,7.57
2018-09-29T18:36:03.056Z,7.27
2018-09-29T18:38:31.885Z,5.93
2018-09-29T18:41:01.072Z,8.33
2018-09-29T18:43:29.882Z,9.33
2018-09-29T18:45:58.877Z,8.67
2018-09-29T18:48:28.058Z,8.47
2018-09-29T18:50:57.715Z,8.90
2018-09-29T18:53:26.475Z,6.57
2018-09-29T18:55:55.702Z,8.13
2018-09-29T18:58:24.499Z,6.30
2018-09-29T19:00:53.274Z,7.43
2018-09-29T19:03:22.369Z,6.93
2018-09-29T19:05:51.193Z,9.53
2018-09-29T19:08:20.035Z,7.87
2018-09-29T19:10:48.998Z,5.47
2018-09-29T19:13:17.780Z,6.00
2018-09-29T19:15:46.580Z,9.23
2018-09-29T19:18:15.561Z,9.80
2018-09-29T19:20:44.392Z,7.60
2018-09-29T19:23:13.155Z,5.60
2018-09-29T19:25:42.256Z,6.00
2018-09-29T19:28:11.044Z,6.90
2018-09-29T19:30:39.843Z,5.63
2018-09-29T19:33:08.964Z,9.03
2018-09-29T19:35:37.856Z,4.70
2018-09-29T19:38:06.792Z,9.03
2018-09-29T19:40:35.915Z,8.97
2018-09-29T19:43:04.767Z,7.60
2018-09-29T19:45:33.613Z,9.00
2018-09-29T19:48:02.801Z,9.80
2018-09-29T19:50:31.628Z,7.03
2018-09-29T19:53:00.460Z,8.60
2018-09-29T19:55:29.560Z,8.53
2018-09-29T19:57:58.426Z,9.87
2018-09-29T20:00:28.493Z,8.03
2018-09-29T20:02:57.787Z,8.83
2018-09-29T20:05:26.731Z,10.67
2018-09-29T20:07:55.518Z,8.80
2018-09-29T20:10:24.577Z,12.20
2018-09-29T20:12:53.463Z,11.47
2018-09-29T20:15:22.272Z,13.23
2018-09-29T20:17:51.393Z,14.60
2018-09-29T20:20:20.211Z,17.03
2018-09-29T20:22:49.088Z,14.80
2018-09-29T20:25:18.232Z,14.50
2018-09-29T20:27:47.058Z,12.10
2018-09-29T20:30:15.896Z,12.83
2018-09-29T20:32:44.993Z,11.67
2018-09-29T20:35:13.855Z,9.20
2018-09-29T20:37:42.747Z,11.67
2018-09-29T20:40:11.890Z,6.70
2018-09-29T20:42:40.684Z,10.13
2018-09-29T20:45:09.499Z,14.03
2018-09-29T20:47:38.679Z,13.63
2018-09-29T20:50:07.579Z,8.90
2018-09-29T20:52:36.354Z,11.30
2018-09-29T20:55:05.769Z,7.80
2018-09-29T20:57:34.572Z,14.73
2018-09-29T21:00:03.592Z,18.67
2018-09-29T21:02:32.752Z,28.87
2018-09-29T21:05:01.572Z,27.93
2018-09-29T21:07:30.384Z,23.37
2018-09-29T21:09:59.827Z,20.37
2018-09-29T21:12:28.649Z,11.73
2018-09-29T21:14:57.444Z,10.97
2018-09-29T21:17:26.613Z,8.67
2018-09-29T21:19:55.456Z,10.23
2018-09-29T21:22:24.508Z,9.93
2018-09-29T21:24:53.556Z,10.90
2018-09-29T21:27:22.426Z,11.13
2018-09-29T21:29:51.253Z,10.17
2018-09-29T21:32:20.805Z,5.83
2018-09-29T21:34:49.602Z,6.70
2018-09-29T21:37:18.485Z,6.80
2018-09-29T21:39:47.335Z,8.60
2018-09-29T21:42:16.462Z,5.70
2018-09-29T21:44:45.227Z,8.73
2018-09-29T21:47:14.388Z,5.30
2018-09-29T21:49:43.255Z,5.27
2018-09-29T21:52:12.291Z,6.77
2018-09-29T21:54:41.427Z,8.63
2018-09-29T21:57:10.254Z,5.70
2018-09-29T21:59:39.051Z,6.70
2018-09-29T22:02:08.311Z,4.70
2018-09-29T22:04:37.181Z,6.50
2018-09-29T22:07:06.161Z,12.93
2018-09-29T22:09:35.259Z,7.33
2018-09-29T22:12:04.083Z,7.47
2018-09-29T22:14:32.952Z,5.87
2018-09-29T22:17:02.173Z,8.20
2018-09-29T22:19:30.972Z,5.93
2018-09-29T22:21:59.804Z,5.23
2018-09-29T22:24:28.952Z,8.07
2018-09-29T22:26:57.783Z,7.73
2018-09-29T22:29:26.569Z,5.47
2018-09-29T22:31:56.051Z,5.77
2018-09-29T22:34:24.749Z,6.17
2018-09-29T22:36:53.523Z,6.60
2018-09-29T22:39:22.713Z,6.07
2018-09-29T22:41:51.503Z,6.03
2018-09-29T22:44:20.299Z,7.70
2018-09-29T22:46:49.493Z,6.00
2018-09-29T22:49:18.356Z,7.27
2018-09-29T22:51:47.220Z,8.27
2018-09-29T22:54:16.371Z,4.17
2018-09-29T22:56:45.168Z,6.07
2018-09-29T22:59:13.947Z,5.77
2018-09-29T23:01:43.031Z,8.07
2018-09-29T23:04:11.984Z,7.20
2018-09-29T23:06:40.810Z,8.93
2018-09-29T23:09:11.380Z,5.07
2018-09-29T23:11:40.578Z,7.63
2018-09-29T23:14:09.391Z,7.67
2018-09-29T23:16:38.646Z,7.60
2018-09-29T23:19:07.515Z,5.07
2018-09-29T23:21:36.287Z,7.13
2018-09-29T23:24:05.437Z,5.30
2018-09-29T23:26:34.232Z,4.97
2018-09-29T23:29:03.102Z,5.63
2018-09-29T23:31:32.214Z,5.60
2018-09-29T23:34:01.008Z,6.53
2018-09-29T23:36:29.790Z,6.63
2018-09-29T23:38:58.859Z,5.03
2018-09-29T23:41:27.715Z,6.67
2018-09-29T23:43:56.486Z,6.47
2018-09-29T23:46:25.894Z,8.27
2018-09-29T23:48:54.693Z,6.30
2018-09-29T23:51:23.551Z,6.90
2018-09-29T23:53:52.756Z,6.73
2018-09-29T23:56:21.547Z,7.97
2018-09-29T23:58:50.343Z,5.20
